Bellville, Texas
Current Conditions -  °F | °C
As of 7:15 AM on Thursday 27 Nov 2014 (Local Time) from K11R Reporting Station
Clear Clear  
Wind Chill: 45°   Ceiling: Unl
Heat Index: 45°   Visibility: 10mi
Dew Point: 36°   Wind: 3mph
Humidity: 71%   Direction: 10°N
Pressure: 30.48"   Gusts: NA
Location:  29.95°N, 96.26°W
Report Text: K11R 271315Z AUTO 01003KT 10SM CLR 07/02 A3048 RMK AO2 T00720022
Loading
Personal Weather Stations






























Interactive Weather Map New forecast layout! Learn more

10-Day Weather Forecast

Advertisements
Track Severe Weather on mobile